Texas Logo

Northwest, TX Single Family Real Estate Listings

3126 Total Real Estate Listings * Click on table heading to sort
Date Posted Property Type Style Address Price Living Area Lot Size Price/Sq Ft.
2018-11-16 Single Family Traditional 8018 Hammerly Boulevard Houston, TX 77055 $379,324 1,936 sq. ft. 7,841 sq. ft. $196
2018-11-16 Single Family Ranch 9840 Warwana Road Houston, TX 77080 $349,700 2,963 sq. ft. 17,860 sq. ft. $118
2018-11-16 Single Family Traditional 1714 Libbey Drive Houston, TX 77018 $355,000 1,005 sq. ft. 7,405 sq. ft. $353
2018-11-16 Single Family Traditional 10133 Kemp Forest Drive Houston, TX 77080 $210,000 2,108 sq. ft. 3,049 sq. ft. $100
2018-11-16 Single Family Traditional 7518 Highland Farms Road Houston, TX 77095 $245,000 2,727 sq. ft. 7,405 sq. ft. $90
2018-11-16 Single Family Traditional 9730 Kindletree Drive Houston, TX 77040 $194,900 2,498 sq. ft. 12,197 sq. ft. $78
2018-11-16 Single Family Traditional 10507 Waving Fields Drive Houston, TX 77064 $189,900 1,920 sq. ft. 6,098 sq. ft. $99
2018-11-16 Single Family Traditional 10311 Kennewick Drive Houston, TX 77064 $199,995 1,897 sq. ft. 6,534 sq. ft. $105
2018-11-16 Single Family Ranch 1815 Bethlehem Street Houston, TX 77018 $529,000 2,221 sq. ft. 7,841 sq. ft. $238
2018-11-16 Single Family Ranch 1413 Freedonia Drive Houston, TX 77055 $419,900 2,067 sq. ft. 11,761 sq. ft. $203
2018-11-16 Single Family Traditional 1031 41st Street Houston, TX 77018 $499,854 2,000 sq. ft. 9,148 sq. ft. $250
2018-11-16 Single Family Traditional 10907 Keystone Fairway Drive Houston, TX 77095 $329,000 3,676 sq. ft. 9,583 sq. ft. $90
2018-11-16 Single Family Ranch 4814 Blanton Boulevard Houston, TX 77092 $269,900 1,304 sq. ft. 10,890 sq. ft. $207
2018-11-16 Single Family Traditional 4406 Pine Mountain Court Houston, TX 77084 $279,900 2,852 sq. ft. 15,246 sq. ft. $98
2018-11-16 Single Family Traditional 14215 Torrey Vista Drive Houston, TX 77014 $219,999 2,540 sq. ft. 7,405 sq. ft. $87
2018-11-16 Single Family Traditional 1103 Kaliste Meadow Drive Houston, TX 77090 $210,000 2,545 sq. ft. 6,098 sq. ft. $83
2018-11-16 Single Family Traditional 12703 Misty Valley Drive Houston, TX 77066 $180,000 3,509 sq. ft. 9,148 sq. ft. $51
2018-11-16 Single Family Ranch 2014 Wakefield Drive Houston, TX 77018 $430,000 2,025 sq. ft. 6,970 sq. ft. $212
2018-11-16 Single Family Traditional 10921 Cannes Memorial Drive Houston, TX 77043 $311,510 1,490 sq. ft. 2,178 sq. ft. $209
2018-11-16 Single Family Traditional 10923 Cannes Memorial Drive Houston, TX 77043 $352,600 2,258 sq. ft. 2,178 sq. ft. $156
2018-11-16 Single Family Traditional 10925 Cannes Memorial Drive Houston, TX 77043 $300,310 1,501 sq. ft. 2,178 sq. ft. $200
2018-11-16 Single Family Ranch 1910 Manila Lane Houston, TX 77043 $305,000 1,558 sq. ft. 8,276 sq. ft. $196
2018-11-16 Single Family Traditional 2039 Harland Drive Houston, TX 77055 $279,900 1,275 sq. ft. 12,197 sq. ft. $220
2018-11-16 Single Family Traditional 14903 Rosehill Court Houston, TX 77070 $275,000 2,738 sq. ft. 12,197 sq. ft. $100
2018-11-16 Single Family Traditional 3 Champion Villa Drive Houston, TX 77069 $299,999 3,148 sq. ft. 4,356 sq. ft. $95
2018-11-16 Single Family Traditional 5402 Cross Valley Drive Houston, TX 77066 $136,000 1,380 sq. ft. 10,019 sq. ft. $99
2018-11-15 Single Family Traditional 5722 Arncliffe Drive Houston, TX 77088 $160,000 2,580 sq. ft. 10,019 sq. ft. $62
2018-11-15 Single Family Traditional 1422 Chamboard Lane Houston, TX 77018 $365,000 993 sq. ft. 7,405 sq. ft. $368
2018-11-15 Single Family Traditional 5418 Coral Gables Drive Houston, TX 77069 $295,000 3,046 sq. ft. 12,197 sq. ft. $97
2018-11-15 Single Family Ranch 7907 Bayou Forest Drive Houston, TX 77088 $175,000 1,846 sq. ft. 6,098 sq. ft. $95
2018-11-15 Single Family Traditional 10606 Wayward Wind Lane Houston, TX 77064 $187,000 2,110 sq. ft. 6,098 sq. ft. $89
2018-11-15 Single Family Traditional 4711 Cashel Circle Houston, TX 77069 $175,000 1,867 sq. ft. 3,485 sq. ft. $94
2018-11-15 Single Family Traditional 16122 Saxon Hollow Lane Houston, TX 77084 $249,900 2,346 sq. ft. 6,534 sq. ft. $107
2018-11-15 Single Family Ranch; Traditional 1917 Althea Drive Houston, TX 77018 $359,000 1,248 sq. ft. 7,405 sq. ft. $288
2018-11-15 Single Family Traditional 11219 Velvet Grass Lane Houston, TX 77095 $343,000 4,380 sq. ft. 7,841 sq. ft. $78
2018-11-15 Single Family Ranch; Traditional 9529 Kerrwood Lane Houston, TX 77080 $300,000 1,485 sq. ft. 7,405 sq. ft. $202
2018-11-15 Single Family Traditional 6846 Hertford Park Drive Houston, TX 77084 $225,000 2,040 sq. ft. 7,405 sq. ft. $110
2018-11-15 Single Family French 12022 Greenwood Estates Street Houston, TX 77066 $215,000 2,655 sq. ft. 9,148 sq. ft. $81
2018-11-15 Single Family Contemporary/Modern; English; Traditional 12123 Laneview Drive Houston, TX 77070 $399,900 4,086 sq. ft. 9,583 sq. ft. $98
2018-11-15 Single Family Traditional 13703 Barons Bridge Drive Houston, TX 77069 $374,500 3,741 sq. ft. 12,632 sq. ft. $100
2018-11-15 Single Family Traditional 16514 Wheatmill Court Houston, TX 77095 $215,000 2,838 sq. ft. 6,970 sq. ft. $76
2018-11-15 Single Family Traditional 13602 Somersworth Drive Houston, TX 77041 $212,000 2,477 sq. ft. 9,148 sq. ft. $86
2018-11-15 Single Family Traditional 8615 Easter Street Houston, TX 77088 $135,000 1,357 sq. ft. 7,841 sq. ft. $99
2018-11-15 Single Family Contemporary/Modern 2739 Whitinham Drive Houston, TX 77067 $145,000 2,732 sq. ft. 5,663 sq. ft. $53
2018-11-15 Single Family Traditional 8710 Cataldo Court Houston, TX 77040 $225,000 2,842 sq. ft. 5,227 sq. ft. $79
2018-11-15 Single Family Contemporary/Modern 10311 Glenfield Park Lane Houston, TX 77070 $229,000 2,392 sq. ft. 5,227 sq. ft. $96
2018-11-15 Single Family Traditional 10526 Prospect Hill Drive Houston, TX 77064 $184,000 1,671 sq. ft. 6,098 sq. ft. $110
2018-11-15 Single Family Traditional 9823 Kindletree Circle Houston, TX 77040 $166,000 2,357 sq. ft. 12,197 sq. ft. $70
2018-11-15 Single Family Ranch; Traditional 10118 Rosbrook Drive Houston, TX 77038 $159,900 1,922 sq. ft. 7,405 sq. ft. $83
2018-11-15 Single Family Traditional 14130 Champion Village Drive Houston, TX 77069 $398,800 3,627 sq. ft. 20,909 sq. ft. $110
2018-11-15 Single Family Traditional 7006 Schiller Street Houston, TX 77055 $315,000 1,027 sq. ft. 8,712 sq. ft. $307
2018-11-15 Single Family Traditional 9308 Bauer Vista Drive Houston, TX 77080 $304,940 1,501 sq. ft. 1,742 sq. ft. $203
2018-11-15 Single Family Traditional 9310 Bauer Vista Drive Houston, TX 77080 $366,760 2,258 sq. ft. 1,742 sq. ft. $162
2018-11-15 Single Family Traditional 11703 Fawnview Drive Houston, TX 77070 $279,900 4,139 sq. ft. 10,019 sq. ft. $68
2018-11-15 Single Family Traditional 723 Baltic Lane Houston, TX 77090 $210,000 3,092 sq. ft. 9,583 sq. ft. $68
2018-11-15 Single Family Traditional 1419 Gardenview Drive Houston, TX 77014 $174,900 2,287 sq. ft. 9,583 sq. ft. $76
2018-11-15 Single Family Traditional 14306 Alaman Drive Houston, TX 77090 $175,000 1,724 sq. ft. 6,970 sq. ft. $102
2018-11-15 Single Family Traditional 12803 Azalea Creek Trail Houston, TX 77065 $249,900 2,500 sq. ft. 8,276 sq. ft. $100
2018-11-14 Single Family Ranch; Traditional 3702 Ascot Lane Houston, TX 77092 $999,900 1,814 sq. ft. 23,958 sq. ft. $551
2018-11-14 Single Family Traditional 906 Lamonte Lane Houston, TX 77018 $1,149,900 3,343 sq. ft. 8,276 sq. ft. $344
2018-11-14 Single Family Traditional 3050 Providence Oak Street Houston, TX 77084 $295,000 3,729 sq. ft. 6,534 sq. ft. $79
2018-11-14 Single Family Traditional 16418 Leamington Lane Houston, TX 77095 $179,000 1,782 sq. ft. 5,227 sq. ft. $100
2018-11-14 Single Family Traditional 3506 Colmar Way Houston, TX 77084 $185,000 1,945 sq. ft. 7,841 sq. ft. $95
2018-11-14 Single Family Traditional 1230 Chalk Rock Drive Houston, TX 77067 $175,000 1,865 sq. ft. 5,663 sq. ft. $94
2018-11-14 Single Family Contemporary/Modern 508 Donovan Street Houston, TX 77091 $276,440 1,606 sq. ft. 2,178 sq. ft. $172
2018-11-14 Single Family Contemporary/Modern; Traditional 10011 Brickhouse Drive Houston, TX 77080 $332,995 2,052 sq. ft. 1,742 sq. ft. $162
2018-11-14 Single Family Traditional 10003 Brickhouse Drive Houston, TX 77080 $281,995 1,495 sq. ft. 2,178 sq. ft. $189
2018-11-14 Single Family Traditional 3109 Planters Peak Drive Houston, TX 77080 $297,995 1,650 sq. ft. 1,742 sq. ft. $181
2018-11-14 Single Family Contemporary/Modern 508 Donovan Street Houston, TX 77091 $269,990 1,606 sq. ft. 1,742 sq. ft. $168
2018-11-14 Single Family Contemporary/Modern 508 Donovan Street Houston, TX 77091 $269,990 1,604 sq. ft. 2,178 sq. ft. $168
2018-11-14 Single Family French 5502 Court Of York Houston, TX 77069 $399,900 3,756 sq. ft. 10,019 sq. ft. $106
2018-11-14 Single Family Contemporary/Modern; Traditional 3106 Planters Peak Drive Houston, TX 77080 $319,995 1,942 sq. ft. 1,742 sq. ft. $165
2018-11-14 Single Family Traditional 10013 Brickhouse Drive Houston, TX 77080 $282,995 1,495 sq. ft. 1,742 sq. ft. $189
2018-11-14 Single Family Traditional 17535 Pattiglen Drive Houston, TX 77084 $176,900 1,856 sq. ft. 4,792 sq. ft. $95
2018-11-14 Single Family Traditional 15502 Swan Creek Dr Drive Houston, TX 77095 $160,999 1,812 sq. ft. 6,970 sq. ft. $89
2018-11-14 Single Family Ranch; Traditional 1827 Peer Drive Houston, TX 77043 $395,000 2,060 sq. ft. 10,019 sq. ft. $192
2018-11-14 Single Family Traditional 5219 Wincroft Court Houston, TX 77069 $425,000 5,313 sq. ft. 12,632 sq. ft. $80
2018-11-14 Single Family Traditional 15006 Rolling Oaks Drive Houston, TX 77070 $202,000 1,772 sq. ft. 6,970 sq. ft. $114
2018-11-14 Single Family Traditional 11531 Pinole Lane Court Houston, TX 77066 $199,995 2,339 sq. ft. 8,712 sq. ft. $86
2018-11-14 Single Family Traditional 18090 Carbridge Drive Drive Houston, TX 77084 $195,000 1,869 sq. ft. 6,534 sq. ft. $104
2018-11-14 Single Family Traditional 4615 Cashel Circle Houston, TX 77069 $179,500 2,305 sq. ft. 5,227 sq. ft. $78
2018-11-14 Single Family Other Style 15923 Pine Mountain Drive Houston, TX 77084 $194,900 2,129 sq. ft. 8,276 sq. ft. $92
2018-11-14 Single Family Traditional 7635 Lemma Drive Houston, TX 77041 $143,500 1,105 sq. ft. 6,534 sq. ft. $130
2018-11-14 Single Family Traditional 5934 Par Four Drive Houston, TX 77088 $93,500 1,986 sq. ft. 7,405 sq. ft. $47
2018-11-14 Single Family Contemporary/Modern; Mediterranean; Traditional 5939 Solar Point Lane Houston, TX 77041 $539,000 4,431 sq. ft. 11,326 sq. ft. $122
2018-11-14 Single Family Traditional 5702 Sapphire Vista Lane Houston, TX 77041 $420,000 3,370 sq. ft. 9,583 sq. ft. $125
2018-11-14 Single Family Traditional 5815 Lorinowoods Drive Houston, TX 77066 $214,900 2,570 sq. ft. 10,454 sq. ft. $84
2018-11-14 Single Family Traditional 4711 Windmill Run Drive Houston, TX 77069 $239,990 2,458 sq. ft. 4,792 sq. ft. $98
2018-11-14 Single Family Traditional 8223 Clover Gardens Drive Houston, TX 77095 $198,000 2,365 sq. ft. 9,148 sq. ft. $84
2018-11-14 Single Family Traditional 11635 Wren Crossing Drive Houston, TX 77038 $189,900 3,021 sq. ft. 5,663 sq. ft. $63
2018-11-14 Single Family Traditional 6031 Darkwood Drive Houston, TX 77088 $195,000 2,279 sq. ft. 9,148 sq. ft. $86
2018-11-14 Single Family Traditional 5631 Evening Shore Drive Houston, TX 77041 $379,000 2,945 sq. ft. 9,148 sq. ft. $129
2018-11-14 Single Family Traditional 13735 Meisterwood Drive Houston, TX 77065 $149,900 1,816 sq. ft. 13,068 sq. ft. $83
2018-11-13 Single Family Other Style 8605 Rannie Road Houston, TX 77080 $475,000 4,650 sq. ft. 11,761 sq. ft. $102
2018-11-13 Single Family Traditional 4330 Hickory Grove Drive Houston, TX 77084 $185,000 1,538 sq. ft. 5,227 sq. ft. $120
2018-11-13 Single Family Other Style 1518 Aldrich Street Houston, TX 77055 $329,000 1,114 sq. ft. 7,405 sq. ft. $295
2018-11-13 Single Family Traditional 2610 Count Eric Drive Houston, TX 77084 $159,900 1,527 sq. ft. 6,098 sq. ft. $105
2018-11-13 Single Family Traditional 6918 Sealey Street Houston, TX 77091 $97,500 936 sq. ft. 4,356 sq. ft. $104
2018-11-13 Single Family Ranch 12727 Melvern Court Houston, TX 77041 $369,000 2,549 sq. ft. 11,326 sq. ft. $145
2018-11-13 Single Family Ranch; Traditional 18603 Camellia Dale Trail Houston, TX 77084 $309,990 4,294 sq. ft. 9,148 sq. ft. $72
2018-11-13 Single Family Traditional 6558 Monte Bello Ridge Lane Houston, TX 77041 $324,900 3,192 sq. ft. 12,197 sq. ft. $102
2018-11-13 Single Family Traditional 10 Saint Thomas Court Houston, TX 77070 $320,000 3,398 sq. ft. 9,148 sq. ft. $94
2018-11-13 Single Family Traditional 10214 Pinewood Fox Drive Houston, TX 77080 $331,995 1,930 sq. ft. $172
2018-11-13 Single Family Contemporary/Modern 1823 Du Barry Lane Houston, TX 77018 $323,000 1,760 sq. ft. 7,405 sq. ft. $184
2018-11-13 Single Family Traditional 16810 Morris Hill Lane Houston, TX 77095 $274,990 3,546 sq. ft. 7,841 sq. ft. $78
2018-11-13 Single Family Traditional 14603 Auburn Dusk Drive Houston, TX 77069 $249,990 2,606 sq. ft. 8,712 sq. ft. $96
2018-11-13 Single Family Traditional 7119 Shady Moss Lane Houston, TX 77040 $165,000 2,013 sq. ft. 8,712 sq. ft. $82
2018-11-13 Single Family Traditional 10211 Alder Ridge Drive Houston, TX 77080 $336,995 1,855 sq. ft. $182
2018-11-13 Single Family Traditional 9822 Gold Cup Way Houston, TX 77065 $214,300 2,145 sq. ft. 9,583 sq. ft. $100
2018-11-13 Single Family Traditional 10255 Laurel Branch Drive Houston, TX 77064 $225,000 2,244 sq. ft. 8,276 sq. ft. $100
2018-11-13 Single Family Traditional 2203 Cherryville Drive Houston, TX 77038 $167,240 1,250 sq. ft. $134
2018-11-13 Single Family Traditional 16026 Juniper Grove Drive Houston, TX 77084 $169,000 2,478 sq. ft. 3,920 sq. ft. $68
2018-11-13 Single Family Contemporary/Modern 1258 Post Oak Road Houston, TX 77055 $399,000 2,190 sq. ft. 1,742 sq. ft. $182
2018-11-13 Single Family Contemporary/Modern 1254 Post Oak Road Houston, TX 77055 $409,000 2,190 sq. ft. 1,742 sq. ft. $187
2018-11-13 Single Family Contemporary/Modern 1260 Post Oak Road Houston, TX 77055 $399,000 2,190 sq. ft. 1,742 sq. ft. $182
2018-11-13 Single Family Traditional 9706 Crestdale Circle Houston, TX 77080 $249,000 1,681 sq. ft. 6,098 sq. ft. $148
2018-11-13 Single Family Traditional 7210 Bayou Woods Drive Houston, TX 77088 $210,000 2,004 sq. ft. 10,454 sq. ft. $105
2018-11-13 Single Family Traditional 7306 Burkridge Drive Houston, TX 77041 $179,900 1,772 sq. ft. 6,534 sq. ft. $102
2018-11-13 Single Family Traditional 8502 Rose Manor Drive Houston, TX 77095 $139,500 1,808 sq. ft. 12,197 sq. ft. $77
2018-11-13 Single Family Traditional 10028 Rosbrook Drive Houston, TX 77038 $120,000 1,137 sq. ft. 3,920 sq. ft. $106
2018-11-13 Single Family English 1505 Monarch Oaks Street Houston, TX 77055 $2,099,000 6,242 sq. ft. 14,810 sq. ft. $336
2018-11-13 Single Family Traditional 16006 Piney Links Houston, TX 77068 $449,000 3,961 sq. ft. 11,326 sq. ft. $113
2018-11-13 Single Family Traditional 6215 Dove Prairie Court Houston, TX 77041 $263,000 2,508 sq. ft. 6,970 sq. ft. $105
2018-11-13 Single Family Traditional 2607 Oakwood Bluff Trail Houston, TX 77038 $217,995 1,889 sq. ft. $115
2018-11-13 Single Family Traditional 14606 Sierra Garden Drive Houston, TX 77069 $229,990 2,606 sq. ft. 4,792 sq. ft. $88
2018-11-13 Single Family Traditional 1037 North Lane Houston, TX 77088 $57,900 772 sq. ft. 4,792 sq. ft. $75
2018-11-13 Single Family Traditional 6119 Sentry Park Lane Houston, TX 77084 $224,000 2,520 sq. ft. 5,663 sq. ft. $89
2018-11-13 Single Family Traditional 14747 Tilley Street Houston, TX 77084 $199,000 2,380 sq. ft. 9,148 sq. ft. $84
2018-11-13 Single Family Traditional 12014 Glenway Drive Houston, TX 77070 $249,900 2,731 sq. ft. 8,712 sq. ft. $92
2018-11-12 Single Family Contemporary/Modern 9223 Hammerly Boulevard Houston, TX 77080 $249,500 1,976 sq. ft. 11,761 sq. ft. $126
2018-11-12 Single Family Traditional 10110 Shadow Pine Dr Houston, TX 77070 $139,000 1,315 sq. ft. $106
2018-11-12 Single Family Ranch 9909 Pine Lake Drive Houston, TX 77055 $595,000 2,660 sq. ft. 9,148 sq. ft. $224
2018-11-12 Single Family Traditional 5307 Green Springs Drive Houston, TX 77066 $179,900 2,430 sq. ft. 9,148 sq. ft. $74
2018-11-12 Single Family Traditional 15302 Cypress Garden Drive Houston, TX 77069 $260,000 2,660 sq. ft. 18,295 sq. ft. $98
2018-11-12 Single Family Traditional 18175 Holly Forest Drive Houston, TX 77084 $205,000 2,063 sq. ft. 7,841 sq. ft. $99
2018-11-12 Single Family Traditional 1915 Delphi Lane Houston, TX 77067 $149,850 1,581 sq. ft. 7,841 sq. ft. $95
2018-11-12 Single Family Traditional 1803 Nina Lee Lane Houston, TX 77018 $529,000 2,010 sq. ft. 7,841 sq. ft. $263
2018-11-12 Single Family Traditional 13719 Darrington Lane Houston, TX 77069 $239,000 2,844 sq. ft. 8,276 sq. ft. $84
2018-11-12 Single Family Traditional 12622 Mint Field Drive Houston, TX 77066 $197,000 3,088 sq. ft. 4,356 sq. ft. $64
2018-11-12 Single Family Traditional 5503 Evening Shore Drive Houston, TX 77041 $449,000 3,530 sq. ft. 9,148 sq. ft. $127
2018-11-12 Single Family Traditional 12603 Wilbury Park Houston, TX 77041 $368,000 2,549 sq. ft. 10,890 sq. ft. $144
2018-11-12 Single Family Traditional 1110 Tigris Lane Houston, TX 77090 $209,999 2,972 sq. ft. 10,454 sq. ft. $71
2018-11-12 Single Family Traditional 14630 Aspen Peak Drive Houston, TX 77069 $199,990 1,516 sq. ft. 4,356 sq. ft. $132
2018-11-12 Single Family Ranch; Traditional 11511 Early Mist Court Houston, TX 77064 $155,000 1,458 sq. ft. 6,534 sq. ft. $106
2018-11-12 Single Family Traditional 8330 Waterbury Drive Houston, TX 77055 $399,000 1,283 sq. ft. 7,841 sq. ft. $311
2018-11-12 Single Family Traditional 17421 Ponderosa Pines Drive Houston, TX 77090 $334,900 4,484 sq. ft. 12,632 sq. ft. $75
2018-11-12 Single Family Traditional 9610 Blackamore Circle Houston, TX 77065 $230,000 2,040 sq. ft. 7,405 sq. ft. $113
2018-11-12 Single Family Traditional 4403 Hickory Grove Drive Houston, TX 77084 $160,000 1,541 sq. ft. 4,792 sq. ft. $104
2018-11-12 Single Family Traditional 4411 Tracemeadow Drive Houston, TX 77066 $128,900 1,312 sq. ft. 4,356 sq. ft. $98
2018-11-12 Single Family Traditional 1414 Pine Chase Drive Houston, TX 77055 $1,480,000 4,399 sq. ft. 8,712 sq. ft. $336
2018-11-12 Single Family Contemporary/Modern 11014 Ayrshire Park Houston, TX 77043 $400,000 2,174 sq. ft. 1,742 sq. ft. $184
2018-11-12 Single Family Traditional 5558 Honor Drive Houston, TX 77041 $449,900 3,647 sq. ft. 10,890 sq. ft. $123
2018-11-12 Single Family Traditional 5942 Greenmont Drive Houston, TX 77092 $284,950 2,180 sq. ft. 10,454 sq. ft. $131
2018-11-12 Single Family Traditional 6107 Golden Forest Drive Houston, TX 77092 $299,900 1,714 sq. ft. 6,970 sq. ft. $175
2018-11-12 Single Family Contemporary/Modern 2314 Green Knoll Drive Houston, TX 77067 $186,000 1,744 sq. ft. 6,970 sq. ft. $107
2018-11-12 Single Family Contemporary/Modern 1107 Oakwood Pass Court Houston, TX 77043 $405,000 2,244 sq. ft. 2,178 sq. ft. $180
2018-11-12 Single Family Traditional 5303 Pebble Springs Drive Houston, TX 77066 $235,000 3,376 sq. ft. 10,019 sq. ft. $70
2018-11-12 Single Family Traditional 17102 Coventry Park Drive Houston, TX 77084 $199,000 2,320 sq. ft. 6,098 sq. ft. $86
2018-11-12 Single Family Contemporary/Modern; Traditional 11527 Deep Meadow Drive Houston, TX 77064 $150,000 1,652 sq. ft. 6,534 sq. ft. $91
2018-11-12 Single Family Contemporary/Modern 7911 Antoine Drive Houston, TX 77088 $225,000 2,626 sq. ft. 11,761 sq. ft. $86
2018-11-11 Single Family Traditional 5026 Saxon Drive Houston, TX 77092 $325,000 2,406 sq. ft. 7,405 sq. ft. $135
2018-11-11 Single Family Traditional 7507 Woodland Gate Drive Houston, TX 77040 $210,000 2,019 sq. ft. 3,485 sq. ft. $104
2018-11-11 Single Family Traditional 7062 River Garden Drive Houston, TX 77095 $199,900 1,926 sq. ft. 6,970 sq. ft. $104
2018-11-11 Single Family Traditional 8309 Williamsdell Street Houston, TX 77088 $180,000 1,698 sq. ft. 10,019 sq. ft. $106
2018-11-11 Single Family Ranch 1510 Caywood Lane Houston, TX 77055 $473,000 1,816 sq. ft. 12,632 sq. ft. $260
2018-11-11 Single Family Traditional 7923 Shangrila Lane Houston, TX 77095 $195,000 1,808 sq. ft. 6,970 sq. ft. $108
2018-11-11 Single Family Traditional 11903 Wood Hollow Lane Houston, TX 77043 $170,000 1,567 sq. ft. 5,663 sq. ft. $108
2018-11-11 Single Family Traditional 10407 Timberoak Drive Houston, TX 77043 $359,000 1,912 sq. ft. 8,712 sq. ft. $188
2018-11-10 Single Family Traditional 862 Prosper Street Houston, TX 77088 $199,900 8,712 sq. ft.
2018-11-10 Single Family Other Style 1090 Lamonte Lane Houston, TX 77018 $1,500,000 11,761 sq. ft.
2018-11-10 Single Family Contemporary/Modern 9203 Theysen Drive Houston, TX 77080 $424,990 2,221 sq. ft. 10,890 sq. ft. $191
2018-11-10 Single Family Traditional 17511 Wild Willow Lane Houston, TX 77084 $155,000 1,404 sq. ft. 6,534 sq. ft. $110
2018-11-10 Single Family Traditional 7607 Long Creek Court Houston, TX 77088 $185,000 3,129 sq. ft. 13,504 sq. ft. $59
2018-11-10 Single Family Traditional 7314 Stone Valley Drive Houston, TX 77095 $229,000 2,241 sq. ft. 6,970 sq. ft. $102
2018-11-10 Single Family Traditional 4111 Surreydon Drive Houston, TX 77014 $229,000 3,145 sq. ft. 6,534 sq. ft. $73
2018-11-10 Single Family Traditional 17211 Rancho Verde Way Houston, TX 77095 $209,900 1,980 sq. ft. 6,970 sq. ft. $106
2018-11-10 Single Family Traditional 15706 Fox Springs Drive Houston, TX 77084 $204,800 1,802 sq. ft. 6,534 sq. ft. $114
2018-11-10 Single Family Traditional 9834 Golden Prairie Lane Houston, TX 77086 $174,900 2,654 sq. ft. 5,227 sq. ft. $66
2018-11-10 Single Family Traditional 11926 Swan Creek Drive Houston, TX 77065 $179,900 1,874 sq. ft. $96
2018-11-10 Single Family Traditional 2831 Oriole Wood Court Houston, TX 77038 $154,900 1,665 sq. ft. 4,356 sq. ft. $93
2018-11-10 Single Family Traditional 3611 Oakhall Drive Houston, TX 77066 $151,990 1,159 sq. ft. 6,098 sq. ft. $131
2018-11-10 Single Family Traditional 871 Wakefield Drive Houston, TX 77018 $409,900 2,459 sq. ft. 2,614 sq. ft. $167
2018-11-10 Single Family Contemporary/Modern; Traditional 8340 Ginger Oak Houston, TX 77055 $448,000 2,274 sq. ft. 1,742 sq. ft. $197
2018-11-10 Single Family Traditional 4444 Victory Drive Houston, TX 77088 $239,000 1,987 sq. ft. 5,227 sq. ft. $120
2018-11-10 Single Family Traditional 9839 Canoga Lane Houston, TX 77080 $429,000 2,146 sq. ft. 8,712 sq. ft. $200
2018-11-10 Single Family Traditional 4607 Cobble Grove Lane Houston, TX 77084 $205,000 2,069 sq. ft. 5,663 sq. ft. $99
2018-11-10 Single Family Traditional 2807 Iris Valley Way Houston, TX 77038 $170,000 2,325 sq. ft. 4,792 sq. ft. $73
2018-11-10 Single Family Traditional 17419 Jade Springs Drive Houston, TX 77095 $193,000 1,855 sq. ft. 6,534 sq. ft. $104
2018-11-09 Single Family Contemporary/Modern; Spanish 2706 Piney Lake Court Houston, TX 77038 $172,999 1,721 sq. ft. 3,485 sq. ft. $101
2018-11-09 Single Family Ranch; Traditional 5107 Spruce Forest Drive Houston, TX 77091 $190,000 1,575 sq. ft. 5,227 sq. ft. $121
2018-11-09 Single Family Traditional 6319 Northmark Drive Houston, TX 77084 $195,000 1,911 sq. ft. 6,098 sq. ft. $102
2018-11-09 Single Family Traditional 1702 Lamonte Lane Houston, TX 77018 $875,000 3,908 sq. ft. 6,970 sq. ft. $224
2018-11-09 Single Family Mediterranean; Traditional 7542 Little Caprese Lane Houston, TX 77055 $935,000 3,274 sq. ft. $286
2018-11-09 Single Family Mediterranean; Traditional 7531 Cuadro Lane Houston, TX 77055 $750,000 2,675 sq. ft. $280
2018-11-09 Single Family Traditional 5234 Chambler Court Houston, TX 77069 $389,000 3,655 sq. ft. 17,860 sq. ft. $106
2018-11-09 Single Family Traditional 7402 Heron Lakes Drive Houston, TX 77064 $269,900 3,827 sq. ft. 9,148 sq. ft. $71
2018-11-09 Single Family Traditional 17502 Golden Glade Lane Houston, TX 77095 $285,000 2,795 sq. ft. 8,276 sq. ft. $102
2018-11-09 Single Family Traditional 17930 Castle Heath Lane Houston, TX 77084 $213,900 1,823 sq. ft. 6,970 sq. ft. $117
2018-11-09 Single Family Traditional 12703 Rocky Hill Drive Houston, TX 77066 $208,500 2,340 sq. ft. 9,148 sq. ft. $89
2018-11-09 Single Family Contemporary/Modern 3430 Hartington Drive Houston, TX 77066 $160,000 1,835 sq. ft. 6,098 sq. ft. $87
2018-11-09 Single Family Traditional 10010 Arrowgrass Drive Houston, TX 77064 $185,000 1,598 sq. ft. 6,534 sq. ft. $116
2018-11-09 Single Family Georgian; Traditional 11 Hickory Shadows Drive Houston, TX 77055 $799,000 4,802 sq. ft. 7,405 sq. ft. $166
2018-11-09 Single Family Ranch 2750 Shadowdale Drive Houston, TX 77043 $414,900 3,110 sq. ft. 8,712 sq. ft. $133
2018-11-09 Single Family Traditional 2703 S Southern Oaks Drive Houston, TX 77068 $349,000 4,027 sq. ft. 8,712 sq. ft. $87
2018-11-09 Single Family Traditional 2710 Glenfield Manor Lane Houston, TX 77014 $239,990 2,270 sq. ft. 16,117 sq. ft. $106
2018-11-09 Single Family Traditional 9827 Mountain Chestnut Road Houston, TX 77070 $259,995 2,910 sq. ft. $89
2018-11-09 Single Family Traditional 16419 Drystone Lane Houston, TX 77095 $292,425 3,802 sq. ft. 9,583 sq. ft. $77
2018-11-09 Single Family Contemporary/Modern 15623 T C Jester Boulevard Houston, TX 77068 $254,900 2,525 sq. ft. 10,890 sq. ft. $101
2018-11-09 Single Family Traditional 14423 Sugar Mill Circle Houston, TX 77095 $230,000 1,885 sq. ft. 9,148 sq. ft. $122
2018-11-09 Single Family Traditional 12647 Vogle Creek Trail Houston, TX 77086 $222,771 1,673 sq. ft. 6,970 sq. ft. $133
2018-11-09 Single Family Traditional 12651 Pelican Bay Drive Houston, TX 77038 $200,900 2,072 sq. ft. $97
2018-11-09 Single Family Traditional 12719 Pelican Bay Drive Houston, TX 77038 $200,900 2,072 sq. ft. $97
2018-11-09 Single Family Ranch 7047 River Garden Drive Houston, TX 77095 $215,000 1,986 sq. ft. 6,534 sq. ft. $108
2018-11-09 Single Family Traditional 4411 Aspenglen Drive Houston, TX 77084 $148,000 1,344 sq. ft. 5,663 sq. ft. $110
2018-11-09 Single Family Traditional 8711 Cherie Grove Circle Houston, TX 77088 $88,900 1,124 sq. ft. 3,485 sq. ft. $79
2018-11-09 Single Family Traditional 6923 Amber Court Houston, TX 77069 $396,000 3,776 sq. ft. 9,583 sq. ft. $105
2018-11-09 Single Family Traditional 12551 Country Arbor Lane Houston, TX 77041 $308,000 3,210 sq. ft. 7,841 sq. ft. $96
2018-11-09 Single Family Traditional 14518 Northern Mountain Court Houston, TX 77090 $266,313 2,783 sq. ft. $96
2018-11-09 Single Family Traditional 7206 Broadelm Drive Houston, TX 77095 $225,000 2,204 sq. ft. 9,148 sq. ft. $102
2018-11-09 Single Family Traditional 15102 Raffia Leaves Way Houston, TX 77090 $207,779 2,581 sq. ft. $80
2018-11-09 Single Family Traditional 4618 Misty Shadows Drive Houston, TX 77041 $175,000 1,416 sq. ft. 6,970 sq. ft. $124
2018-11-09 Single Family Traditional 8314 Town Creek Drive Houston, TX 77095 $199,900 2,420 sq. ft. 7,841 sq. ft. $83
2018-11-09 Single Family Traditional 2111 Cherryville Drive Houston, TX 77038 $170,090 1,250 sq. ft. $136
2018-11-09 Single Family Ranch 10807 Meadow Walk Lane Houston, TX 77067 $168,500 1,756 sq. ft. 7,405 sq. ft. $96
2018-11-09 Single Family Traditional 2019 Antoine Drive Houston, TX 77055 $189,000 973 sq. ft. 7,841 sq. ft. $194
2018-11-09 Single Family Traditional 14410 Sandalfoot Street Houston, TX 77095 $200,000 2,042 sq. ft. 5,663 sq. ft. $98
2018-11-09 Single Family Traditional 5915 Bent Bough Lane Houston, TX 77088 $149,900 2,250 sq. ft. 7,841 sq. ft. $67
2018-11-09 Single Family Traditional 1422 Grand Valley Drive Houston, TX 77090 $149,500 3,047 sq. ft. 10,019 sq. ft. $49
2018-11-09 Single Family Traditional 1731 Nina Lee Lane Houston, TX 77018 $699,000 2,329 sq. ft. 7,841 sq. ft. $300
2018-11-09 Single Family Traditional 1736 Nina Lee Lane Houston, TX 77018 $699,000 2,457 sq. ft. 8,276 sq. ft. $284
2018-11-09 Single Family French 10954 Wrenwood Green Houston, TX 77043 $400,000 2,357 sq. ft. 2,178 sq. ft. $170
2018-11-09 Single Family Ranch 1709 Spur Lane Houston, TX 77080 $365,000 1,468 sq. ft. 12,632 sq. ft. $249
2018-11-09 Single Family Traditional 8833 Ashbloom Lane Houston, TX 77080 $349,900 2,344 sq. ft. 2,178 sq. ft. $149
2018-11-09 Single Family Other Style 7415 Cart Gate Drive Drive Houston, TX 77095 $275,000 2,984 sq. ft. 8,276 sq. ft. $92
2018-11-09 Single Family Traditional 10227 Stone Cactus Drive Houston, TX 77095 $185,000 1,740 sq. ft. 5,663 sq. ft. $106
2018-11-09 Single Family Traditional 4747 Whispering Falls Drive Houston, TX 77084 $199,000 2,700 sq. ft. 6,534 sq. ft. $74
2018-11-09 Single Family Colonial 17930 Elk River Circle Houston, TX 77090 $160,000 3,414 sq. ft. 10,890 sq. ft. $47
2018-11-09 Single Family Traditional 2703 Broad Haven Drive Houston, TX 77067 $149,900 1,880 sq. ft. 6,970 sq. ft. $80
2018-11-09 Single Family Traditional 11507 Barwood Bend Drive Houston, TX 77065 $143,000 2,700 sq. ft. 9,583 sq. ft. $53
2018-11-09 Single Family Traditional 1122 Candlelight Lane Houston, TX 77018 $529,900 2,438 sq. ft. 8,712 sq. ft. $217
2018-11-09 Single Family French 10935 Wrenwood Green Houston, TX 77043 $510,000 2,848 sq. ft. 2,178 sq. ft. $179
2018-11-09 Single Family Traditional 1823 Corral Drive Houston, TX 77090 $195,990 2,668 sq. ft. 9,148 sq. ft. $73
2018-11-09 Single Family Ranch 11926 Paramount Lane Houston, TX 77067 $146,900 1,633 sq. ft. 6,098 sq. ft. $90
2018-11-09 Single Family Contemporary/Modern 3254 Palston Bend Lane Houston, TX 77014 $129,000 1,683 sq. ft. 3,049 sq. ft. $77
2018-11-09 Single Family Colonial 15806 Blueberry Hill Ct Court Houston, TX 77084 $119,000 1,463 sq. ft. 9,148 sq. ft. $81
2018-11-09 Single Family Traditional 11510 Fallwood Drive Houston, TX 77065 $179,900 1,669 sq. ft. 8,712 sq. ft. $108
2018-11-08 Single Family Traditional 9803 Moorberry Lane Houston, TX 77080 $334,000 2,287 sq. ft. 11,326 sq. ft. $146
2018-11-08 Single Family Traditional 17610 Bending Post Drive Houston, TX 77095 $329,900 3,162 sq. ft. 9,148 sq. ft. $104
2018-11-08 Single Family Traditional 8207 Polished Stone Circle Houston, TX 77095 $249,000 2,730 sq. ft. 6,970 sq. ft. $91
2018-11-08 Single Family Traditional 4514 Viking Drive Houston, TX 77092 $699,000 3,001 sq. ft. 7,405 sq. ft. $233
2018-11-08 Single Family Contemporary/Modern; Traditional 13519 Grand Masterpiece Lane Houston, TX 77041 $475,000 4,300 sq. ft. 12,632 sq. ft. $110
2018-11-08 Single Family Traditional 15003 Weeping Cedar Lane Houston, TX 77084 $219,990 2,607 sq. ft. 6,970 sq. ft. $84
2018-11-08 Single Family Contemporary/Modern 15923 Red Willow Drive Houston, TX 77084 $179,900 1,851 sq. ft. 8,712 sq. ft. $97
2018-11-08 Single Family Traditional 1203 Turnbury Oak Street Houston, TX 77055 $749,000 3,343 sq. ft. 7,405 sq. ft. $224
2018-11-08 Single Family Traditional 16422 Redcrest Drive Houston, TX 77095 $295,000 3,116 sq. ft. 7,841 sq. ft. $95
2018-11-08 Single Family Traditional 2211 Laurel Bend Lane Houston, TX 77014 $165,000 2,185 sq. ft. 6,098 sq. ft. $76
2018-11-08 Single Family Traditional 9551 Spiralwood Lane Houston, TX 77086 $179,000 2,084 sq. ft. 7,405 sq. ft. $86
2018-11-08 Single Family Traditional 5671 Grand Floral Boulevard Houston, TX 77041 $599,000 4,437 sq. ft. 13,068 sq. ft. $135
2018-11-08 Single Family Traditional 1220 Murrayhill Houston, TX 77043 $459,900 2,555 sq. ft. 2,614 sq. ft. $180
2018-11-08 Single Family Traditional 1230 Murrayhill Houston, TX 77043 $500,000 2,555 sq. ft. 2,614 sq. ft. $196
2018-11-08 Single Family Traditional 1214 Murrayhill Drive Houston, TX 77043 $449,900 2,601 sq. ft. 2,178 sq. ft. $173
2018-11-08 Single Family Traditional 1224 Murrayhill Houston, TX 77043 $469,900 2,601 sq. ft. 2,178 sq. ft. $181
2018-11-08 Single Family Traditional 8606 Hooks Creek Court Houston, TX 77095 $295,000 2,840 sq. ft. 12,632 sq. ft. $104
2018-11-08 Single Family Traditional 14522 Northern Mountain Houston, TX 77090 $229,500 2,600 sq. ft. 5,663 sq. ft. $88
2018-11-08 Single Family Traditional 6127 Cape Hatteras Drive Houston, TX 77041 $209,000 1,693 sq. ft. 6,534 sq. ft. $123
2018-11-08 Single Family Traditional 17135 Carshalton Court Houston, TX 77084 $180,000 1,538 sq. ft. 5,227 sq. ft. $117
2018-11-08 Single Family Traditional 10406 Pagewick Drive Houston, TX 77041 $185,000 1,540 sq. ft. 8,276 sq. ft. $120
2018-11-08 Single Family Traditional 15723 Pagehurst Drive Houston, TX 77084 $190,000 1,811 sq. ft. 7,405 sq. ft. $105
2018-11-08 Single Family Traditional 16715 Bouldgreen Houston, TX 77084 $165,000 1,859 sq. ft. 7,405 sq. ft. $89
2018-11-08 Single Family Traditional 1705 Du Barry Lane Houston, TX 77018 $850,000 3,843 sq. ft. 8,276 sq. ft. $221
2018-11-08 Single Family Traditional 18307 Meandering Meadow Lane Houston, TX 77084 $259,900 3,932 sq. ft. 6,098 sq. ft. $66
2018-11-08 Single Family Colonial 12515 Indian Wells Drive Houston, TX 77066 $239,000 2,649 sq. ft. 9,583 sq. ft. $90
2018-11-08 Single Family Traditional 17118 Canyon Stream Court Houston, TX 77095 $210,000 2,130 sq. ft. 6,970 sq. ft. $99
2018-11-08 Single Family Traditional 14022 Marners Court Houston, TX 77014 $185,000 2,434 sq. ft. 4,792 sq. ft. $76
2018-11-08 Single Family Traditional 14814 Cedar Point Drive Houston, TX 77070 $185,000 2,962 sq. ft. 9,148 sq. ft. $62
2018-11-08 Single Family Traditional 13418 Wimbledon Oaks Drive Houston, TX 77065 $160,000 1,690 sq. ft. 6,970 sq. ft. $95
2018-11-08 Single Family Traditional 12602 Big Stone Drive Houston, TX 77066 $174,500 3,120 sq. ft. 11,761 sq. ft. $56
2018-11-08 Single Family Traditional 1306 Chamboard Lane Houston, TX 77018 $650,000 2,202 sq. ft. 7,405 sq. ft. $295
2018-11-08 Single Family Contemporary/Modern 1301 Chantilly Lane Houston, TX 77018 $1,299,000 4,581 sq. ft. 7,405 sq. ft. $284
2018-11-08 Single Family Traditional 5703 Cielio Bay Court Houston, TX 77041 $485,000 4,075 sq. ft. 10,454 sq. ft. $119
2018-11-08 Single Family Traditional 9313 Bauer Vista Drive Houston, TX 77080 $343,230 2,258 sq. ft. 2,178 sq. ft. $152
2018-11-08 Single Family Traditional 8726 Ridgebury Circle Houston, TX 77095 $375,000 3,418 sq. ft. 13,068 sq. ft. $110
2018-11-08 Single Family Ranch; Traditional 1931 Woodvine Drive Houston, TX 77055 $255,000 1,847 sq. ft. 7,405 sq. ft. $138
2018-11-08 Single Family Traditional 12239 Forstall Drive Houston, TX 77014 $224,413 3,050 sq. ft. 5,663 sq. ft. $74
2018-11-08 Single Family Contemporary/Modern 9122 Tarpon Springs Lane Houston, TX 77095 $224,000 2,240 sq. ft. 7,841 sq. ft. $100
2018-11-08 Single Family Traditional 2006 Roanwood Drive Houston, TX 77090 $195,000 2,848 sq. ft. 8,712 sq. ft. $68
2018-11-08 Single Family Traditional 11611 Barwood Bend Drive Houston, TX 77065 $188,000 2,085 sq. ft. 10,019 sq. ft. $90
2018-11-08 Single Family Ranch; Traditional 15026 Forest Lodge Drive Houston, TX 77070 $199,000 1,829 sq. ft. 8,712 sq. ft. $109
2018-11-08 Single Family Traditional 2107 Hazyknoll Lane Houston, TX 77067 $150,000 1,486 sq. ft. 8,712 sq. ft. $101
2018-11-08 Single Family Traditional 2651 Kiplands Court Houston, TX 77014 $149,500 1,668 sq. ft. 3,485 sq. ft. $90
2018-11-08 Single Family Ranch 12102 Hastings Green Drive Houston, TX 77065 $166,500 1,628 sq. ft. 6,098 sq. ft. $102
2018-11-07 Single Family Traditional 12531 Millscott Drive Houston, TX 77070 $250,000 2,733 sq. ft. 9,583 sq. ft. $91
2018-11-07 Single Family Ranch 3802 Ella Boulevard Houston, TX 77018 $335,000 1,028 sq. ft. 8,712 sq. ft. $326
2018-11-07 Single Family Split Level; Traditional 16539 Obsidian Drive Houston, TX 77095 $369,800 3,857 sq. ft. 10,019 sq. ft. $96
2018-11-07 Single Family Traditional 3214 Walhalla Drive Houston, TX 77066 $149,500 2,148 sq. ft. 6,098 sq. ft. $70
2018-11-07 Single Family Traditional 1426 Lynnview Drive Houston, TX 77055 $1,596,000 5,892 sq. ft. 13,068 sq. ft. $271
2018-11-07 Single Family English; Traditional 1627 Nocturne Lane Houston, TX 77043 $521,850 2,485 sq. ft. 10,454 sq. ft. $210
2018-11-07 Single Family Contemporary/Modern; Other Style 10907 Upland Retreat Drive Houston, TX 77043 $350,000 1,991 sq. ft. 1,307 sq. ft. $176
2018-11-07 Single Family Traditional 7034 43rd Street Houston, TX 77092 $265,000 1,706 sq. ft. 2,614 sq. ft. $155
2018-11-07 Single Family Traditional 4227 Apollo Street Houston, TX 77018 $449,500 1,627 sq. ft. 7,405 sq. ft. $276
2018-11-07 Single Family Traditional 2018 Eagle Rock Drive Drive Houston, TX 77080 $459,000 2,372 sq. ft. 8,712 sq. ft. $194
2018-11-07 Single Family Traditional 15963 Knolls Lodge Drive Houston, TX 77095 $324,900 3,620 sq. ft. 11,761 sq. ft. $90
2018-11-07 Single Family Traditional 10203 Alder Ridge Drive Houston, TX 77080 $323,995 1,855 sq. ft. $175
2018-11-07 Single Family Traditional 6521 Westview Drive Houston, TX 77055 $350,000 1,030 sq. ft. 8,276 sq. ft. $340
2018-11-07 Single Family Traditional 17714 Sunset River Lane Houston, TX 77084 $245,000 2,061 sq. ft. 6,534 sq. ft. $119
2018-11-07 Single Family Traditional 10126 Twila Springs Court Houston, TX 77095 $215,000 2,260 sq. ft. 6,534 sq. ft. $95
2018-11-07 Single Family Traditional 10910 Fawnview Drive Houston, TX 77070 $219,000 2,820 sq. ft. 9,583 sq. ft. $78
2018-11-07 Single Family Traditional 11315 Milners Point Drive Houston, TX 77066 $159,900 1,662 sq. ft. 6,534 sq. ft. $96
2018-11-07 Single Family Traditional 18543 Trail Bend Lane Houston, TX 77084 $139,900 1,168 sq. ft. 4,356 sq. ft. $120
2018-11-07 Single Family Contemporary/Modern 315 Yale Oaks Lane Houston, TX 77091 $319,900 1,802 sq. ft. 3,920 sq. ft. $178
2018-11-07 Single Family Contemporary/Modern 10815 Kyler Oaks Place Houston, TX 77043 $350,286 2,281 sq. ft. 1,742 sq. ft. $154
2018-11-07 Single Family Contemporary/Modern 10828 Brittmoore Oaks Place Houston, TX 77043 $362,145 2,281 sq. ft. 2,178 sq. ft. $159
2018-11-07 Single Family Contemporary/Modern 10813 Kyler Oaks Place Houston, TX 77043 $325,079 1,787 sq. ft. 1,742 sq. ft. $182
2018-11-07 Single Family Traditional 11226 Mayfield Road Houston, TX 77043 $289,900 2,051 sq. ft. 9,148 sq. ft. $141
2018-11-07 Single Family Traditional 11035 Sprucedale Court Houston, TX 77070 $250,000 2,562 sq. ft. 8,712 sq. ft. $98
2018-11-07 Single Family Traditional 4715 Windmill Run Drive Houston, TX 77069 $224,990 2,458 sq. ft. 4,792 sq. ft. $92
2018-11-07 Single Family Traditional 11907 Cedarcliff Drive Houston, TX 77070 $169,000 2,087 sq. ft. 8,276 sq. ft. $81
2018-11-07 Single Family Traditional 6318 Cebra Street Houston, TX 77091 $191,900 1,320 sq. ft. 3,920 sq. ft. $145
2018-11-07 Single Family Traditional 5534 Honor Drive Houston, TX 77041 $434,000 3,545 sq. ft. 9,583 sq. ft. $122
2018-11-07 Single Family Ranch 18123 Spellbrook Drive Houston, TX 77084 $259,900 2,548 sq. ft. 9,583 sq. ft. $102
2018-11-07 Single Family Traditional 4934 Poinciana Drive Houston, TX 77092 $269,000 1,742 sq. ft. 6,970 sq. ft. $154
2018-11-07 Single Family Traditional 14230 Faulkey Gully Houston, TX 77070 $285,000 2,916 sq. ft. 7,841 sq. ft. $98
2018-11-07 Single Family Traditional 17822 North White Tail Court Houston, TX 77084 $235,000 1,910 sq. ft. 3,920 sq. ft. $123
2018-11-07 Single Family Traditional 2910 Westerfield Lane Houston, TX 77084 $225,000 2,134 sq. ft. 5,663 sq. ft. $105
2018-11-07 Single Family Traditional 14610 Sunny Grove Drive Houston, TX 77070 $237,500 2,672 sq. ft. 9,148 sq. ft. $89
2018-11-07 Single Family Traditional 15611 Miller House Lane Houston, TX 77086 $215,000 2,620 sq. ft. 5,227 sq. ft. $82
2018-11-07 Single Family Traditional 12702 Amado Drive Houston, TX 77065 $199,900 2,261 sq. ft. 10,019 sq. ft. $88
2018-11-07 Single Family Traditional 13523 Pecan Oak Drive Houston, TX 77065 $179,000 1,860 sq. ft. 9,583 sq. ft. $96
2018-11-07 Single Family Contemporary/Modern 4403 Mountwood Street Houston, TX 77018 $339,996 2,416 sq. ft. 10,890 sq. ft. $141
2018-11-07 Single Family Traditional 8915 Bold Forest Drive Houston, TX 77088 $210,000 2,400 sq. ft. 6,970 sq. ft. $88
2018-11-07 Single Family Traditional 8426 Bridgefoot Ln Houston, TX 77064 $159,000 1,632 sq. ft. 7,841 sq. ft. $97
2018-11-07 Single Family Traditional 8515 Shallowlake Court Houston, TX 77095 $272,000 2,782 sq. ft. 16,988 sq. ft. $98
2018-11-07 Single Family Traditional 21227 Branchport Drive Houston, TX 77095 $215,000 2,336 sq. ft. 4,792 sq. ft. $92
2018-11-07 Single Family Traditional 17010 Lolly Lane Houston, TX 77084 $175,000 1,800 sq. ft. 4,792 sq. ft. $97
2018-11-07 Single Family Traditional 12815 Deer Cove Lane Houston, TX 77041 $230,000 2,463 sq. ft. 5,663 sq. ft. $93
2018-11-06 Single Family Traditional 16122 Rainbow Lake Road Houston, TX 77095 $300,000 3,554 sq. ft. 9,148 sq. ft. $84
2018-11-06 Single Family Traditional 2026 Fernspray Lane Houston, TX 77084 $185,000 2,294 sq. ft. 8,712 sq. ft. $81
2018-11-06 Single Family Traditional 8939 Bent Spur Lane Houston, TX 77064 $314,490 2,384 sq. ft. 11,761 sq. ft. $132
2018-11-06 Single Family Traditional 7746 High Village Drive Houston, TX 77095 $157,750 1,302 sq. ft. 4,792 sq. ft. $121
2018-11-06 Single Family Other Style 7316 Schiller Houston, TX 77055 $899,000
2018-11-06 Single Family Traditional 10051 Green Valley Lane Houston, TX 77064 $189,900 1,280 sq. ft. 6,970 sq. ft. $148
2018-11-06 Single Family Traditional 11611 Stone Bridge Drive Houston, TX 77064 $145,000 2,245 sq. ft. 6,098 sq. ft. $65
2018-11-06 Single Family Other Style 794 Dillard Street Houston, TX 77091 $77,000 648 sq. ft. 7,405 sq. ft. $119
2018-11-06 Single Family Contemporary/Modern 17006 Northgate Forest Circle Houston, TX 77068 $899,000 6,210 sq. ft. 17,860 sq. ft. $145
2018-11-06 Single Family Traditional 11017 Camel Walk Houston, TX 77043 $479,800 2,480 sq. ft. 2,178 sq. ft. $193
2018-11-06 Single Family Traditional 17010 Laguna Springs Drive Houston, TX 77095 $329,900 3,474 sq. ft. 8,712 sq. ft. $95
2018-11-06 Single Family Traditional 7603 Bideford Lane Houston, TX 77070 $215,000 2,342 sq. ft. 13,068 sq. ft. $92
2018-11-06 Single Family Traditional 3534 La Palma Lane Houston, TX 77084 $197,000 1,428 sq. ft. 6,098 sq. ft. $138
2018-11-06 Single Family Traditional 10319 Sand Pass Lane Houston, TX 77064 $135,000 1,648 sq. ft. 9,148 sq. ft. $82
2018-11-06 Single Family Traditional 2403 Del Norte Street Houston, TX 77018 $339,700 2,336 sq. ft. 8,276 sq. ft. $145
2018-11-06 Single Family Colonial 7527 Wildwood Brook Court Houston, TX 77095 $298,000 2,542 sq. ft. 7,405 sq. ft. $117
2018-11-06 Single Family Traditional 17703 Washburne Lane Houston, TX 77095 $290,000 2,798 sq. ft. 9,148 sq. ft. $104
2018-11-06 Single Family Traditional 6634 Gentle Bend Drive Houston, TX 77069 $199,900 2,979 sq. ft. 7,405 sq. ft. $67
2018-11-06 Single Family Traditional 10030 Farrell Drive Houston, TX 77070 $155,000 1,744 sq. ft. 3,485 sq. ft. $89
2018-11-06 Single Family Traditional 17411 Redleaf Hollow Lane Houston, TX 77095 $495,000 4,166 sq. ft. 10,890 sq. ft. $119
2018-11-06 Single Family Traditional 1408 Story Street Houston, TX 77055 $320,000 816 sq. ft. 10,454 sq. ft. $392
2018-11-06 Single Family Traditional 8910 Green Ray Drive Houston, TX 77095 $265,000 2,040 sq. ft. 9,148 sq. ft. $130
2018-11-06 Single Family Ranch; Traditional 1419 Adkins Road Houston, TX 77055 $730,000 3,088 sq. ft. 10,019 sq. ft. $236
2018-11-06 Single Family Traditional 4414 Rosebay Drive Houston, TX 77018 $450,000 2,056 sq. ft. 6,098 sq. ft. $219
2018-11-06 Single Family Ranch 2026 Libbey Drive Houston, TX 77018 $340,000 1,572 sq. ft. 7,405 sq. ft. $216
2018-11-06 Single Family Traditional 1914 Marlberry Lane Houston, TX 77084 $235,000 2,064 sq. ft. 7,841 sq. ft. $114
2018-11-06 Single Family Traditional 17811 Northway Court Houston, TX 77084 $132,500 976 sq. ft. 4,792 sq. ft. $136
2018-11-06 Single Family Mediterranean 10011 Greencreek Drive Houston, TX 77070 $149,900 1,824 sq. ft. 7,841 sq. ft. $82
2018-11-05 Single Family Contemporary/Modern 2007 Peppermill Road Houston, TX 77080 $255,000 1,742 sq. ft. 5,227 sq. ft. $146
2018-11-05 Single Family Traditional 10818 Elmdale Drive Houston, TX 77070 $279,000 3,406 sq. ft. 10,454 sq. ft. $82
2018-11-05 Single Family Traditional 13019 Bainbridge Trail Houston, TX 77065 $229,000 2,538 sq. ft. 6,970 sq. ft. $90
2018-11-05 Single Family Traditional 6316 Cebra Street Houston, TX 77091 $242,900 1,799 sq. ft. 3,485 sq. ft. $135
2018-11-05 Single Family Traditional 6314 Cebra Street Houston, TX 77091 $222,900 1,651 sq. ft. 3,485 sq. ft. $135
2018-11-05 Single Family Traditional 7135 Majestic Oaks Drive Houston, TX 77040 $225,000 2,522 sq. ft. 8,276 sq. ft. $89
2018-11-05 Single Family Traditional 7415 Dearborn Street Houston, TX 77055 $999,000 4,034 sq. ft. 7,405 sq. ft. $248
2018-11-05 Single Family Traditional 5211 Court Of York Houston, TX 77069 $289,900 4,220 sq. ft. 9,583 sq. ft. $69
2018-11-05 Single Family Ranch 5739 Hoover Street Houston, TX 77092 $249,900 1,218 sq. ft. 6,534 sq. ft. $205
2018-11-05 Single Family Traditional 2206 Denridge Drive Houston, TX 77038 $188,990 1,615 sq. ft. 5,663 sq. ft. $117
2018-11-05 Single Family Traditional 2303 Azalea Garden Drive Houston, TX 77038 $190,990 1,550 sq. ft. $123
2018-11-05 Single Family Traditional 2215 Azalea Garden Drive Houston, TX 77038 $173,465 1,250 sq. ft. 9,583 sq. ft. $139
2018-11-05 Single Family Traditional 2110 Denridge Drive Houston, TX 77038 $198,140 1,825 sq. ft. 6,534 sq. ft. $109
2018-11-05 Single Family Traditional 3227 Mission Grove Drive Houston, TX 77068 $379,000 5,090 sq. ft. 13,939 sq. ft. $74
2018-11-05 Single Family French 3207 Springrock Lane Houston, TX 77080 $389,000 1,551 sq. ft. 7,841 sq. ft. $251
2018-11-05 Single Family Other Style 2007 Du Barry Lane Houston, TX 77018 $330,000 1,404 sq. ft. 7,405 sq. ft. $235
2018-11-05 Single Family Contemporary/Modern 14810 Elmont Drive Houston, TX 77095 $212,500 2,235 sq. ft. 7,405 sq. ft. $95
2018-11-05 Single Family Traditional 18410 Leinad Drive Houston, TX 77090 $230,000 1,974 sq. ft. 47,480 sq. ft. $117
2018-11-05 Single Family Traditional 811 Redleaf Lane Houston, TX 77090 $209,900 3,036 sq. ft. 9,583 sq. ft. $69
2018-11-05 Single Family Contemporary/Modern 5713 Pampero Lane Houston, TX 77092 $360,000 2,226 sq. ft. 3,049 sq. ft. $162
2018-11-05 Single Family Traditional 16527 Winthrop Bend Drive Houston, TX 77084 $269,500 3,392 sq. ft. 6,098 sq. ft. $79
2018-11-05 Single Family Traditional 16303 Copperwood Run Way Houston, TX 77084 $264,995 2,646 sq. ft. $100
2018-11-05 Single Family Traditional 5326 Pine Cliff Drive Houston, TX 77084 $189,800 1,994 sq. ft. 6,970 sq. ft. $95
2018-11-05 Single Family Traditional 2126 Cherryville Drive Houston, TX 77038 $175,590 1,350 sq. ft. $130
2018-11-05 Single Family Traditional 8731 Heron View Street Houston, TX 77064 $259,900 3,255 sq. ft. 7,841 sq. ft. $80
2018-11-05 Single Family Traditional 8511 Friendship Road Houston, TX 77080 $239,990 1,505 sq. ft. 6,534 sq. ft. $159
2018-11-05 Single Family Traditional 19330 Clevera Walk Lane Houston, TX 77084 $180,000 1,547 sq. ft. 5,227 sq. ft. $116
2018-11-05 Single Family Traditional 402 Sunnyside Street Houston, TX 77091 $165,000 1,089 sq. ft. 7,841 sq. ft. $152
2018-11-05 Single Family Ranch 18714 Shannon Glen Lane Houston, TX 77084 $149,000 1,502 sq. ft. 6,970 sq. ft. $99
2018-11-05 Single Family Traditional 8203 Megan Place Drive Houston, TX 77095 $228,000 2,502 sq. ft. 6,970 sq. ft. $91
2018-11-05 Single Family English 14006 Creek Grove Court Houston, TX 77066 $139,000 1,755 sq. ft. 7,841 sq. ft. $79
2018-11-05 Single Family Traditional 14918 Oxford Way Houston, TX 77069 $310,000 3,414 sq. ft. 12,632 sq. ft. $91
2018-11-05 Single Family Traditional 17819 Quiet Loch Lane Houston, TX 77084 $297,999 3,419 sq. ft. 8,712 sq. ft. $87
2018-11-05 Single Family Traditional 11715 Keswick Pines Lane Houston, TX 77066 $212,000 2,809 sq. ft. 5,663 sq. ft. $75
2018-11-04 Single Family Traditional 8715 Golden Chord Circle Houston, TX 77040 $359,999 3,356 sq. ft. 8,276 sq. ft. $107
2018-11-04 Single Family Traditional 7534 Club Lake Drive Houston, TX 77095 $289,900 2,991 sq. ft. 15,682 sq. ft. $97
2018-11-04 Single Family Traditional 1523 Anvil Drive Houston, TX 77090 $239,000 3,346 sq. ft. 8,712 sq. ft. $71
2018-11-04 Single Family Traditional 18906 Appletree Ridge Road Houston, TX 77084 $184,900 1,798 sq. ft. 6,098 sq. ft. $103
2018-11-04 Single Family Traditional 17318 Sparrow Way Ct Houston, TX 77095 $249,999 2,390 sq. ft. 6,098 sq. ft. $105
2018-11-04 Single Family Traditional 3318 Clipper Winds Way Houston, TX 77084 $179,800 2,008 sq. ft. 5,227 sq. ft. $90
2018-11-04 Single Family Traditional 7706 Westview Drive Houston, TX 77055 $1,200,000 2,534 sq. ft. 28,314 sq. ft. $474
2018-11-04 Single Family Traditional 13214 Arden Ridge Lane Houston, TX 77014 $235,990 2,619 sq. ft. 5,663 sq. ft. $90
2018-11-04 Single Family Contemporary/Modern 7411 Broken Ridge Drive Houston, TX 77095 $219,900 2,584 sq. ft. 7,405 sq. ft. $85
2018-11-03 Single Family Traditional 5002 Shepherd Drive Houston, TX 77018 $598,000 2,728 sq. ft. 15,682 sq. ft. $219
2018-11-03 Single Family Ranch; Traditional 10411 Rothbury Street Houston, TX 77043 $329,000 1,956 sq. ft. 8,712 sq. ft. $168
2018-11-03 Single Family Traditional 4510 Plum Forest Road Houston, TX 77084 $260,000 3,069 sq. ft. 6,098 sq. ft. $85
2018-11-03 Single Family Traditional 7714 Brook Springs Drive Houston, TX 77095 $215,000 2,169 sq. ft. 12,197 sq. ft. $99
2018-11-03 Single Family Traditional 15807 Eldora Springs Court Houston, TX 77070 $266,000 2,130 sq. ft. 5,227 sq. ft. $125
2018-11-03 Single Family Other Style; Traditional 1219 Richelieu Lane Houston, TX 77018 $1,100,000 4,079 sq. ft. 7,405 sq. ft. $270
2018-11-03 Single Family Traditional 16527 Cheshire Grove Lane Houston, TX 77090 $139,500 1,225 sq. ft. 4,356 sq. ft. $114
2018-11-03 Single Family Contemporary/Modern; Traditional 8826 Lakeshore Terrace Drive Houston, TX 77080 $379,888 2,703 sq. ft. 2,178 sq. ft. $141
2018-11-03 Single Family Ranch 2114 Woodcrest Drive Houston, TX 77018 $289,700 1,283 sq. ft. 8,276 sq. ft. $226
2018-11-03 Single Family Traditional 10223 Mills Pass Drive Houston, TX 77070 $185,000 1,986 sq. ft. 5,227 sq. ft. $93
2018-11-03 Single Family Ranch; Traditional 8206 Westview Drive Houston, TX 77055 $1,099,000 2,320 sq. ft. 27,007 sq. ft. $474
2018-11-03 Single Family Ranch; Traditional 1050 31st Street Houston, TX 77018 $299,999 1,423 sq. ft. 7,841 sq. ft. $211
2018-11-03 Single Family Contemporary/Modern 12135 Canyon Arbor Way Houston, TX 77095 $294,900 2,928 sq. ft. 9,148 sq. ft. $101
2018-11-03 Single Family Traditional 14626 Eldridge Parkway Houston, TX 77070 $280,000 2,662 sq. ft. 8,712 sq. ft. $105
2018-11-03 Single Family Contemporary/Modern 132 Old Bridge Lake Lake Houston, TX 77069 $205,000 2,590 sq. ft. 4,356 sq. ft. $79
2018-11-03 Single Family Traditional 12306 Sarti Street Houston, TX 77066 $145,000 2,139 sq. ft. 13,504 sq. ft. $68
2018-11-03 Single Family Contemporary/Modern 3616 Golf Drive Houston, TX 77018 $439,990 2,185 sq. ft. 3,049 sq. ft. $201
2018-11-03 Single Family Ranch 9715 Moorberry Lane Houston, TX 77080 $459,900 2,460 sq. ft. 8,712 sq. ft. $187
2018-11-03 Single Family Traditional 16603 Creeksouth Road Houston, TX 77068 $93,000 2,640 sq. ft. 36,155 sq. ft. $35
2018-11-02 Single Family Traditional 1901 Wakefield Drive Houston, TX 77018 $439,000 1,905 sq. ft. 7,405 sq. ft. $230
2018-11-02 Single Family Traditional 3108 Planters Peak Drive Houston, TX 77080 $291,995 1,650 sq. ft. 1,742 sq. ft. $177
2018-11-02 Single Family Traditional 3110 Planters Peak Drive Houston, TX 77080 $288,995 1,495 sq. ft. 1,742 sq. ft. $193
2018-11-02 Single Family Traditional 3112 Planters Peak Drive Houston, TX 77080 $293,995 1,650 sq. ft. 1,742 sq. ft. $178
2018-11-02 Single Family Traditional 17506 Hoover Gardens Drive Houston, TX 77095 $258,900 2,895 sq. ft. 5,227 sq. ft. $89
2018-11-02 Single Family Ranch 4603 Scone Street Houston, TX 77084 $167,900 1,857 sq. ft. 8,276 sq. ft. $90
2018-11-02 Single Family Traditional 4502 Turf Valley Drive Houston, TX 77084 $199,000 2,170 sq. ft. 8,712 sq. ft. $92
2018-11-02 Single Family Traditional 1039 Mosher Lane Houston, TX 77088 $145,000 2,238 sq. ft. 7,841 sq. ft. $65
2018-11-02 Single Family Traditional 14903 Timberlark Drive Houston, TX 77070 $599,000 4,240 sq. ft. 16,553 sq. ft. $141
2018-11-02 Single Family Ranch 730 Sleepyvale Lane Houston, TX 77018 $575,000 1,600 sq. ft. 7,405 sq. ft. $359
2018-11-02 Single Family Contemporary/Modern 5006 Poinciana Drive Houston, TX 77092 $424,900 1,863 sq. ft. 7,841 sq. ft. $228
2018-11-02 Single Family Traditional 1051 Althea Drive Houston, TX 77018 $435,000 1,600 sq. ft. 8,276 sq. ft. $272
2018-11-02 Single Family Mediterranean 16003 Piney Links Houston, TX 77068 $489,000 4,329 sq. ft. 13,939 sq. ft. $113
2018-11-02 Single Family Traditional 16506 Willingham Way Houston, TX 77095 $230,000 2,204 sq. ft. 6,534 sq. ft. $104
2018-11-02 Single Family Traditional 11910 Osage Park Drive Houston, TX 77065 $180,000 1,506 sq. ft. 6,534 sq. ft. $120
2018-11-02 Single Family Traditional 15806 Pebble Bend Drive Houston, TX 77068 $189,900 2,323 sq. ft. 10,019 sq. ft. $82
2018-11-02 Single Family Georgian 9838 Green Valley Lane Houston, TX 77064 $199,000 2,055 sq. ft. 6,970 sq. ft. $97
2018-11-02 Single Family Traditional 743 Granville Drive Houston, TX 77091 $139,900 2,216 sq. ft. 7,405 sq. ft. $63
2018-11-02 Single Family Traditional 1507 Ridge Hollow Drive Houston, TX 77067 $134,900 1,270 sq. ft. 7,841 sq. ft. $106
2018-11-02 Single Family Traditional 834 43rd Street Houston, TX 77018 $750,000 3,814 sq. ft. 12,632 sq. ft. $197
2018-11-02 Single Family French 9230 Elizabeth Rd Houston, TX 77055 $1,790,000 5,087 sq. ft. 37,026 sq. ft. $352
2018-11-02 Single Family Contemporary/Modern 504 32nd Street Houston, TX 77018 $329,900 1,740 sq. ft. 3,049 sq. ft. $190
2018-11-02 Single Family Traditional 10518 Laneview Drive Houston, TX 77070 $264,500 2,672 sq. ft. 10,019 sq. ft. $99
2018-11-02 Single Family Traditional 14323 Persimmon Woods Drive Houston, TX 77068 $222,000 2,050 sq. ft. 5,663 sq. ft. $108
2018-11-02 Single Family Traditional 8203 Fernbrook Lane Houston, TX 77070 $219,000 2,790 sq. ft. 10,454 sq. ft. $78
2018-11-02 Single Family Traditional 13511 Hampton Falls Drive Houston, TX 77041 $170,000 1,778 sq. ft. 6,534 sq. ft. $96
2018-11-02 Single Family Ranch 9334 Valwood Court Houston, TX 77088 $169,500 1,690 sq. ft. 15,246 sq. ft. $100
2018-11-02 Single Family Traditional 8506 Parkhill Forest Drive Houston, TX 77088 $155,000 1,868 sq. ft. 6,098 sq. ft. $83
2018-11-02 Single Family Traditional 17427 Hamilwood Drive Houston, TX 77095 $175,000 1,882 sq. ft. 6,098 sq. ft. $93
2018-11-02 Single Family Traditional 1651 Pinot Circle Houston, TX 77055 $985,000 3,838 sq. ft. 6,098 sq. ft. $257
2018-11-02 Single Family Traditional 2214 Latexo Drive Houston, TX 77018 $619,000 2,153 sq. ft. 10,890 sq. ft. $288
2018-11-02 Single Family Traditional 249 Hyta Street Houston, TX 77018 $290,000 1,135 sq. ft. 6,534 sq. ft. $256
2018-11-02 Single Family Ranch; Traditional 2310 Chantilly Lane Houston, TX 77018 $269,000 1,444 sq. ft. 7,405 sq. ft. $186
2018-11-02 Single Family Traditional 6211 Dove Fern Court Houston, TX 77041 $240,800 2,526 sq. ft. 6,534 sq. ft. $95
2018-11-02 Single Family Traditional 11659 Rosewood Forest Court Houston, TX 77038 $204,995 1,889 sq. ft. $109
2018-11-02 Single Family Ranch 2446 Blackridge Road Houston, TX 77067 $135,000 1,454 sq. ft. 5,227 sq. ft. $93
2018-11-02 Single Family Contemporary/Modern; Split Level 6809 Troya Lane Houston, TX 77092 $430,000 2,858 sq. ft. 3,485 sq. ft. $150
2018-11-02 Single Family Traditional 1844 Commons Meadow Lane Houston, TX 77080 $323,995 1,930 sq. ft. $168
2018-11-02 Single Family Traditional 1846 Commons Meadow Lane Houston, TX 77080 $325,995 2,080 sq. ft. $157
2018-11-02 Single Family Traditional 1851 Commons Meadow Lane Houston, TX 77080 $324,995 2,080 sq. ft. $156
2018-11-02 Single Family Contemporary/Modern 5716 Rucio Lane Houston, TX 77092 $275,000 1,700 sq. ft. 2,614 sq. ft. $162
2018-11-02 Single Family Traditional 7502 Bairnsdale Lane Houston, TX 77070 $225,000 2,966 sq. ft. 9,148 sq. ft. $76
2018-11-02 Single Family Traditional 13832 Paradise Valley Drive Houston, TX 77069 $219,000 2,607 sq. ft. 7,841 sq. ft. $84
2018-11-02 Single Family Traditional 16427 Brechin Lane Houston, TX 77095 $198,500 1,833 sq. ft. 5,663 sq. ft. $108
2018-11-02 Single Family Traditional 7310 Smokerock Lane Houston, TX 77040 $184,900 1,512 sq. ft. 6,970 sq. ft. $122
2018-11-02 Single Family Traditional 1107 Helms Road Houston, TX 77088 $170,000 1,607 sq. ft. 6,970 sq. ft. $106
2018-11-02 Single Family Traditional 2430 Brandy Mill Road Houston, TX 77067 $158,000 1,916 sq. ft. 5,227 sq. ft. $82
2018-11-02 Single Family Traditional 10522 Heather Hill Drive Houston, TX 77086 $115,000 1,201 sq. ft. 6,534 sq. ft. $96
2018-11-02 Single Family Ranch; Traditional 2307 Poinciana Drive Houston, TX 77018 $714,990 3,070 sq. ft. 15,682 sq. ft. $233
2018-11-02 Single Family Traditional 2614 Bandelier Drive Houston, TX 77080 $399,900 2,392 sq. ft. 9,148 sq. ft. $167
2018-11-02 Single Family Traditional 9614 Panola Way Houston, TX 77055 $395,000 2,076 sq. ft. 10,019 sq. ft. $190
2018-11-02 Single Family Traditional 1017 Fisher Street Houston, TX 77018 $399,888 1,203 sq. ft. 6,970 sq. ft. $332
2018-11-02 Single Family Traditional 6518 Canyon Cliff Court Houston, TX 77041 $415,000 2,612 sq. ft. 7,405 sq. ft. $159
2018-11-02 Single Family Traditional 7410 Broken Ridge Drive Houston, TX 77095 $245,000 2,976 sq. ft. 7,405 sq. ft. $82
2018-11-02 Single Family Traditional 10946 Britt Way Houston, TX 77043 $225,000 1,412 sq. ft. 7,405 sq. ft. $159
2018-11-02 Single Family Traditional 2606 Quiver Lane Houston, TX 77067 $133,000 1,564 sq. ft. 6,098 sq. ft. $85
2018-11-02 Single Family Ranch 4626 Ella Boulevard Houston, TX 77018 $275,000 1,472 sq. ft. 7,405 sq. ft. $187
2018-11-02 Single Family Traditional 1707 43rd Street Houston, TX 77018 $275,000 1,647 sq. ft. 7,841 sq. ft. $167
2018-11-02 Single Family Traditional 1906 Mission Creek Circle Houston, TX 77084 $217,900 2,344 sq. ft. 6,970 sq. ft. $93
2018-11-02 Single Family Traditional 14723 Kendallbrook Drive Houston, TX 77095 $185,000 1,732 sq. ft. 6,098 sq. ft. $107
2018-11-02 Single Family Contemporary/Modern 4003 Tulane Street Houston, TX 77018 $289,900 1,486 sq. ft. $195
2018-11-01 Single Family Traditional 17027 Copper Shore Drive Houston, TX 77095 $385,000 3,896 sq. ft. 7,841 sq. ft. $99
2018-11-01 Single Family Traditional 5903 Echo Lake Lane Houston, TX 77069 $325,000 2,656 sq. ft. 18,295 sq. ft. $122
2018-11-01 Single Family Traditional 16606 Park Firth Drive Houston, TX 77084 $149,900 1,655 sq. ft. 6,098 sq. ft. $91
2018-11-01 Single Family Traditional 1823 Tucumcari Drive Houston, TX 77090 $207,000 2,595 sq. ft. 9,148 sq. ft. $80
2018-11-01 Single Family Traditional 10218 Raritan Drive Houston, TX 77043 $425,000 1,869 sq. ft. 11,326 sq. ft. $227
2018-11-01 Single Family Traditional 7805 Hanover Mill Lane Houston, TX 77040 $255,000 2,189 sq. ft. 3,049 sq. ft. $116
2018-11-01 Single Family Traditional 2610 Durban Drive Houston, TX 77043 $388,220 3,060 sq. ft. 10,890 sq. ft. $127
2018-11-01 Single Family Traditional 12303 Advance Drive Houston, TX 77065 $215,000 1,978 sq. ft. 10,890 sq. ft. $109
2018-11-01 Single Family Traditional 4003 Tranquil Forest Houston, TX 77084 $249,000 2,262 sq. ft. 6,970 sq. ft. $110
2018-11-01 Single Family Traditional 6527 Laurel Run Houston, TX 77084 $235,000 2,520 sq. ft. 7,405 sq. ft. $93
2018-11-01 Single Family Traditional 12611 Arbor Trellis Drive Houston, TX 77066 $190,000 1,830 sq. ft. 4,356 sq. ft. $104
2018-11-01 Single Family Traditional 17442 Summit Canyon Drive Houston, TX 77095 $185,000 1,718 sq. ft. 4,792 sq. ft. $108
2018-11-01 Single Family Traditional 404 Fenn Street Houston, TX 77018 $474,900 3,449 sq. ft. 2,614 sq. ft. $138
2018-11-01 Single Family Traditional 1035 43rd Street Houston, TX 77018 $479,000 1,835 sq. ft. 6,970 sq. ft. $261